Takaoka, Japan
Current Conditions -  °F | °C
As of 10:00 AM on Wednesday 28 Jan 2015 (Local Time) from RJNT Reporting Station
Scattered Clouds Scattered Clouds  
Wind Chill: 26°   Ceiling: Unl
Heat Index: 32°   Visibility: 6mi
Dew Point: 27°   Wind: 7mph
Humidity: 80%   Direction: 170°S
Pressure: 30.21"   Gusts: NA
Location:  36.75°N, 137.02°E
Report Text: RJNT 280100Z 17006KT 140V210 9999 FEW010 SCT030 00/M03 Q1023
Loading
Personal Weather Stations






























Interactive Weather Map New forecast layout! Learn more

10-Day Weather Forecast

Advertisements
Track Severe Weather on mobile